Time;durP1;ratioP1;P1;durP2;ratioP2;P2;SDS_P1;SDS_P2;PMS_P1;PMS_P2;Temp;Humidity;BMP_temperature;BMP_pressure;BME280_temperature;BME280_humidity;BME280_pressure;Samples;Min_cycle;Max_cycle;Signal;HPM_P1;HPM_P2
2022/12/19 00:02:07;;;;;;;3.03;0.20;;;;;;;8.36;100.00;100141.44;5017410;28;20040;-61
2022/12/19 00:04:34;;;;;;;0.50;0.40;;;;;;;8.34;100.00;100136.34;5014023;28;20032;-60
2022/12/19 00:06:59;;;;;;;1.05;0.22;;;;;;;8.37;100.00;100137.81;5022584;28;20034;-61
2022/12/19 00:09:26;;;;;;;7.28;0.70;;;;;;;8.39;100.00;100130.50;5019857;28;20348;-62
2022/12/19 00:11:51;;;;;;;1.80;0.30;;;;;;;8.40;100.00;100133.00;5020547;28;20041;-61
2022/12/19 00:14:16;;;;;;;2.33;0.90;;;;;;;8.40;100.00;100122.44;5019682;28;20021;-61
2022/12/19 00:16:42;;;;;;;0.30;0.30;;;;;;;8.41;100.00;100126.69;5018574;28;20025;-61
2022/12/19 00:19:09;;;;;;;0.30;0.20;;;;;;;8.47;100.00;100119.88;5017909;28;20386;-60
2022/12/19 00:21:34;;;;;;;1.33;0.70;;;;;;;8.55;100.00;100116.31;5018524;28;20491;-60
2022/12/19 00:24:00;;;;;;;2.25;0.93;;;;;;;8.54;100.00;100123.38;5022728;28;20038;-58
2022/12/19 00:26:30;;;;;;;4.05;0.38;;;;;;;8.60;100.00;100121.84;5021747;28;20030;-61
2022/12/19 00:28:59;;;;;;;0.57;0.30;;;;;;;8.61;100.00;100121.66;5016236;28;20036;-61
2022/12/19 00:31:27;;;;;;;2.67;1.00;;;;;;;8.64;100.00;100112.53;5019666;28;20055;-62
2022/12/19 00:33:52;;;;;;;1.60;1.45;;;;;;;8.62;100.00;100117.16;5016545;28;20389;-62
2022/12/19 00:36:29;;;;;;;1.58;0.20;;;;;;;8.63;100.00;100119.63;5023385;28;20252;-61
2022/12/19 00:38:56;;;;;;;3.03;0.10;;;;;;;8.72;100.00;100115.03;5015878;28;20041;-61
2022/12/19 00:41:27;;;;;;;1.35;0.30;;;;;;;8.73;100.00;100117.50;5016845;28;20095;-59
2022/12/19 00:43:58;;;;;;;2.05;0.10;;;;;;;8.74;100.00;100115.69;5017697;28;20037;-59
2022/12/19 00:46:24;;;;;;;0.65;0.20;;;;;;;8.78;100.00;100109.03;5021476;28;20058;-62
2022/12/19 00:48:50;;;;;;;0.00;0.00;;;;;;;8.84;100.00;100110.09;5019393;28;20120;-56
2022/12/19 00:51:18;;;;;;;0.45;0.03;;;;;;;8.86;100.00;100116.81;5015282;28;20116;-60
2022/12/19 00:53:45;;;;;;;0.55;0.17;;;;;;;8.87;100.00;100121.09;5019134;28;20076;-61
2022/12/19 00:56:13;;;;;;;0.93;0.10;;;;;;;8.91;100.00;100118.91;5023638;28;20124;-61
2022/12/19 00:58:39;;;;;;;0.08;0.00;;;;;;;8.97;100.00;100104.09;5018224;28;20042;-55
2022/12/19 01:01:11;;;;;;;0.00;0.00;;;;;;;9.02;100.00;100113.09;5021812;28;20051;-61
2022/12/19 01:03:36;;;;;;;1.08;0.03;;;;;;;9.00;100.00;100101.09;5014671;28;20029;-60
2022/12/19 01:06:02;;;;;;;0.70;0.00;;;;;;;9.05;100.00;100104.78;5015158;28;20026;-56
2022/12/19 01:08:28;;;;;;;0.55;0.05;;;;;;;9.14;100.00;100116.88;5017133;28;20041;-60
2022/12/19 01:10:53;;;;;;;0.60;0.15;;;;;;;9.21;100.00;100111.63;5017957;28;20031;-60
2022/12/19 01:13:20;;;;;;;0.00;0.00;;;;;;;9.25;100.00;100127.97;5017455;28;20048;-59
2022/12/19 01:15:46;;;;;;;0.10;0.10;;;;;;;9.32;100.00;100110.28;5019797;28;20056;-62
2022/12/19 01:18:12;;;;;;;3.28;0.10;;;;;;;9.38;100.00;100112.19;5017595;28;20069;-62
2022/12/19 01:20:39;;;;;;;0.00;0.00;;;;;;;9.47;100.00;100102.25;5016954;28;20395;-61
2022/12/19 01:23:06;;;;;;;0.57;0.57;;;;;;;9.47;100.00;100094.31;5018746;28;20022;-61
2022/12/19 01:25:36;;;;;;;0.45;0.03;;;;;;;9.50;100.00;100080.69;5021036;28;20044;-57
2022/12/19 01:28:01;;;;;;;0.10;0.00;;;;;;;9.57;100.00;100086.88;5018991;28;20030;-58
2022/12/19 01:30:28;;;;;;;0.10;0.10;;;;;;;9.65;100.00;100097.28;5019986;28;20025;-58
2022/12/19 01:32:55;;;;;;;2.00;1.42;;;;;;;9.66;100.00;100083.06;5016969;28;20040;-61
2022/12/19 01:35:20;;;;;;;4.88;0.75;;;;;;;9.67;100.00;100084.69;5014778;28;20018;-60
2022/12/19 01:37:45;;;;;;;1.45;0.28;;;;;;;9.70;100.00;100092.22;5015325;28;20034;-55
2022/12/19 01:40:12;;;;;;;0.40;0.00;;;;;;;9.68;100.00;100082.84;5017707;28;20036;-59
2022/12/19 01:42:37;;;;;;;0.63;0.00;;;;;;;9.71;100.00;100083.31;5017090;28;20083;-56
2022/12/19 01:45:08;;;;;;;1.73;0.28;;;;;;;9.76;100.00;100078.22;5021901;28;20037;-60
2022/12/19 01:47:59;;;;;;;0.32;0.00;;;;;;;9.85;100.00;100093.97;5015948;28;20049;-59
2022/12/19 01:50:35;;;;;;;0.10;0.10;;;;;;;9.84;100.00;100090.50;5020241;28;20125;-60
2022/12/19 01:53:01;;;;;;;0.85;0.00;;;;;;;9.90;100.00;100080.94;5019451;28;20083;-59
2022/12/19 01:55:27;;;;;;;0.77;0.57;;;;;;;9.95;100.00;100083.81;5017827;28;20072;-59
2022/12/19 01:57:55;;;;;;;1.77;0.00;;;;;;;9.99;100.00;100079.75;5019939;28;20033;-59
2022/12/19 02:00:21;;;;;;;1.58;0.30;;;;;;;10.01;100.00;100078.53;5019899;28;20064;-53
2022/12/19 02:02:55;;;;;;;0.10;0.10;;;;;;;10.15;100.00;100086.56;5018043;28;20069;-57
2022/12/19 02:05:21;;;;;;;1.50;0.30;;;;;;;10.14;100.00;100079.63;5017447;28;20037;-60
2022/12/19 02:07:48;;;;;;;1.25;0.03;;;;;;;10.18;100.00;100084.34;5019025;28;20034;-59
2022/12/19 02:10:13;;;;;;;4.10;0.15;;;;;;;10.19;100.00;100079.84;5018468;28;20029;-54
2022/12/19 02:12:42;;;;;;;0.20;0.10;;;;;;;10.21;100.00;100086.59;5017457;28;20046;-55
2022/12/19 02:15:09;;;;;;;0.38;0.03;;;;;;;10.25;100.00;100079.88;5019460;28;20029;-62
2022/12/19 02:18:08;;;;;;;0.10;0.08;;;;;;;10.39;100.00;100090.56;5024138;28;20570;-56
2022/12/19 02:20:55;;;;;;;1.75;0.10;;;;;;;10.42;100.00;100090.16;5011119;28;20041;-59
2022/12/19 02:23:59;;;;;;;1.98;0.00;;;;;;;10.45;100.00;100092.41;5017053;28;20057;-56
2022/12/19 02:26:42;;;;;;;0.10;0.00;;;;;;;10.46;100.00;100091.41;5025798;28;20120;-54
2022/12/19 02:29:36;;;;;;;1.63;0.10;;;;;;;10.52;100.00;100077.34;5030581;28;20029;-59
2022/12/19 02:32:24;;;;;;;1.73;0.00;;;;;;;10.46;100.00;100080.78;5017511;28;20033;-57
2022/12/19 02:35:23;;;;;;;0.85;0.20;;;;;;;10.52;100.00;100074.69;5020507;28;20447;-57
2022/12/19 02:37:56;;;;;;;2.53;0.05;;;;;;;10.52;100.00;100074.69;5016375;28;20418;-60
2022/12/19 02:40:28;;;;;;;2.22;1.15;;;;;;;10.54;100.00;100059.41;5022463;28;20037;-60
2022/12/19 02:42:58;;;;;;;0.70;0.15;;;;;;;10.58;100.00;100054.50;5026392;28;20538;-60
2022/12/19 02:45:27;;;;;;;1.15;1.05;;;;;;;10.54;100.00;100061.25;5023370;28;20095;-56
2022/12/19 02:47:52;;;;;;;1.05;0.05;;;;;;;10.61;100.00;100078.78;5035959;28;20124;-57
2022/12/19 02:50:18;;;;;;;0.47;0.00;;;;;;;10.65;100.00;100069.41;5027519;28;20112;-56
2022/12/19 02:52:46;;;;;;;1.67;0.17;;;;;;;10.67;100.00;100067.38;5026938;28;20029;-59
2022/12/19 02:55:15;;;;;;;1.67;0.43;;;;;;;10.67;100.00;100040.84;5029783;28;20104;-60
2022/12/19 02:58:22;;;;;;;3.40;0.17;;;;;;;10.68;100.00;100066.34;5034508;28;20029;-59
2022/12/19 03:01:02;;;;;;;1.30;0.30;;;;;;;10.78;100.00;100073.91;5028791;28;20096;-55
2022/12/19 03:03:57;;;;;;;2.40;0.00;;;;;;;10.76;100.00;100070.63;5036329;28;20394;-57
2022/12/19 03:06:37;;;;;;;0.63;0.10;;;;;;;10.76;100.00;100069.81;5019524;28;20041;-55
2022/12/19 03:09:37;;;;;;;4.78;2.28;;;;;;;10.83;100.00;100081.25;5027379;28;20045;-58
2022/12/19 03:12:13;;;;;;;0.63;0.45;;;;;;;10.84;100.00;100069.63;5034369;28;20037;-59
2022/12/19 03:14:40;;;;;;;3.10;0.85;;;;;;;10.79;100.00;100049.03;5028062;28;20044;-56
2022/12/19 03:17:07;;;;;;;0.28;0.00;;;;;;;10.80;100.00;100052.50;5024100;28;20029;-54
2022/12/19 03:19:34;;;;;;;3.15;0.10;;;;;;;10.79;100.00;100049.03;5023895;28;20037;-57
2022/12/19 03:22:00;;;;;;;1.33;0.52;;;;;;;10.82;100.00;100037.22;5031967;28;20387;-59
2022/12/19 03:24:26;;;;;;;4.03;0.50;;;;;;;10.77;100.00;100048.44;5032794;28;20029;-54
2022/12/19 03:27:06;;;;;;;1.83;0.80;;;;;;;10.85;100.00;100047.41;5027177;28;20424;-56
2022/12/19 03:29:41;;;;;;;5.45;0.57;;;;;;;10.95;100.00;100049.66;5042559;28;20072;-56
2022/12/19 03:32:12;;;;;;;7.63;2.95;;;;;;;10.95;100.00;100047.81;5025624;28;20041;-54
2022/12/19 03:34:46;;;;;;;15.70;1.13;;;;;;;11.03;100.00;100050.28;5029929;28;20121;-54
2022/12/19 03:37:21;;;;;;;1.48;0.55;;;;;;;11.00;100.00;100044.56;5031262;28;20033;-54
2022/12/19 03:39:54;;;;;;;6.95;1.55;;;;;;;11.00;100.00;100045.38;5036330;28;20037;-54
2022/12/19 03:45:10;;;;;;;6.57;0.38;;;;;;;11.04;100.00;100035.16;5025760;28;20128;-53
2022/12/19 03:47:45;;;;;;;5.72;1.77;;;;;;;11.02;100.00;100030.06;5027695;28;20124;-53
2022/12/19 03:50:11;;;;;;;3.38;1.10;;;;;;;11.02;100.00;100022.13;5031540;28;20124;-55
2022/12/19 03:52:42;;;;;;;4.25;0.57;;;;;;;11.02;100.00;100011.50;5023579;28;20137;-56
2022/12/19 03:55:11;;;;;;;3.15;1.17;;;;;;;11.03;100.00;100014.97;5024612;28;20488;-57
2022/12/19 03:57:44;;;;;;;3.80;0.68;;;;;;;11.00;100.00;100024.16;5026915;28;20025;-57
2022/12/19 04:00:14;;;;;;;4.22;1.45;;;;;;;10.97;100.00;100032.53;5023065;28;20140;-58
2022/12/19 04:02:44;;;;;;;7.47;1.38;;;;;;;10.95;100.00;100031.09;5028641;28;20128;-52
2022/12/19 04:05:16;;;;;;;5.80;1.25;;;;;;;10.90;100.00;100021.09;5025759;28;20475;-54
2022/12/19 04:07:42;;;;;;;;;;;;;;;10.98;100.00;100020.06;5021488;28;20071;-56
2022/12/19 04:10:13;;;;;;;2.95;0.82;;;;;;;11.00;100.00;100034.75;5027067;28;20078;-56
2022/12/19 04:12:44;;;;;;;0.55;0.45;;;;;;;11.04;100.00;100025.34;5035617;28;20429;-57
2022/12/19 04:15:13;;;;;;;7.30;1.23;;;;;;;11.01;100.00;100017.81;5022938;28;20489;-57
2022/12/19 04:17:54;;;;;;;1.90;0.98;;;;;;;10.98;100.00;100012.94;5023952;28;20361;-54
2022/12/19 04:20:21;;;;;;;1.05;0.63;;;;;;;10.93;100.00;100009.25;5027207;28;20027;-57
2022/12/19 04:22:55;;;;;;;5.07;0.68;;;;;;;10.90;100.00;100010.47;5020804;28;20030;-57
2022/12/19 04:25:26;;;;;;;2.25;0.77;;;;;;;10.95;100.00;100023.13;5026442;28;20057;-54
2022/12/19 04:28:05;;;;;;;2.17;0.82;;;;;;;10.97;100.00;100029.88;5026638;28;20037;-54
2022/12/19 04:30:31;;;;;;;0.85;0.10;;;;;;;10.96;100.00;100014.16;5021394;28;20029;-59
2022/12/19 04:32:58;;;;;;;2.35;0.43;;;;;;;10.90;100.00;100019.25;5027130;28;20025;-55
2022/12/19 04:35:23;;;;;;;1.23;0.10;;;;;;;10.91;100.00;100020.06;5023101;28;20030;-58
2022/12/19 04:37:50;;;;;;;3.05;1.48;;;;;;;10.86;100.00;100023.31;5031952;28;20089;-56
2022/12/19 04:40:16;;;;;;;2.03;0.95;;;;;;;10.88;100.00;100021.28;5024039;28;20471;-53
2022/12/19 04:42:41;;;;;;;0.88;0.63;;;;;;;10.84;100.00;100019.25;5022262;28;20087;-54
2022/12/19 04:45:07;;;;;;;1.25;0.47;;;;;;;10.87;100.00;100032.13;5025690;28;20084;-54
2022/12/19 04:47:32;;;;;;;1.55;0.85;;;;;;;10.93;100.00;100022.53;5031674;28;20128;-54
2022/12/19 04:49:57;;;;;;;5.10;0.20;;;;;;;10.91;100.00;100017.41;5029956;28;20031;-56
2022/12/19 04:52:23;;;;;;;4.22;0.70;;;;;;;10.87;100.00;100017.00;5020485;28;20030;-54
2022/12/19 04:54:48;;;;;;;2.10;0.40;;;;;;;10.88;100.00;100005.38;5022737;28;20067;-56
2022/12/19 04:57:13;;;;;;;2.50;0.43;;;;;;;10.88;100.00;100020.47;5032129;28;20026;-57
2022/12/19 04:59:39;;;;;;;4.15;0.85;;;;;;;10.88;100.00;100015.16;5017219;28;20037;-53
2022/12/19 05:02:07;;;;;;;1.70;0.95;;;;;;;10.88;100.00;100010.69;5023702;28;20129;-58
2022/12/19 05:04:33;;;;;;;2.95;0.30;;;;;;;10.92;100.00;100000.50;5024063;28;20033;-53
2022/12/19 05:06:58;;;;;;;3.10;0.30;;;;;;;10.94;100.00;100017.00;5019127;28;20064;-58
2022/12/19 05:09:24;;;;;;;1.90;0.20;;;;;;;10.93;100.00;100015.38;5035809;28;20099;-58
2022/12/19 05:11:49;;;;;;;7.78;0.88;;;;;;;10.91;100.00;100009.44;5017143;28;20503;-57
2022/12/19 05:14:14;;;;;;;4.03;0.63;;;;;;;10.89;100.00;100009.69;5017967;28;20532;-57
2022/12/19 05:16:40;;;;;;;1.25;0.20;;;;;;;10.90;100.00;100024.56;5023909;28;20600;-59
2022/12/19 05:19:05;;;;;;;1.20;0.47;;;;;;;10.95;100.00;100002.72;5015069;28;20034;-59
2022/12/19 05:21:31;;;;;;;3.00;0.70;;;;;;;10.88;100.00;100001.91;5028043;28;20029;-59
2022/12/19 05:23:56;;;;;;;1.42;0.22;;;;;;;10.89;100.00;100014.13;5021997;28;20026;-57
2022/12/19 05:26:22;;;;;;;0.63;0.05;;;;;;;10.91;100.00;100020.88;5025256;28;20152;-55
2022/12/19 05:28:47;;;;;;;2.50;0.82;;;;;;;10.93;100.00;100019.88;5038499;28;20147;-54
2022/12/19 05:31:16;;;;;;;2.05;0.10;;;;;;;11.00;100.00;100015.38;5027376;28;20021;-55
2022/12/19 05:33:42;;;;;;;5.68;1.30;;;;;;;11.01;100.00;100006.41;5025599;28;20167;-56
2022/12/19 05:36:09;;;;;;;1.27;0.52;;;;;;;10.97;100.00;99997.19;5021836;28;20018;-55
2022/12/19 05:38:34;;;;;;;1.10;0.25;;;;;;;10.91;100.00;99974.97;5030509;28;20384;-59
2022/12/19 05:41:08;;;;;;;3.22;0.40;;;;;;;10.93;100.00;99975.59;5028544;28;20036;-54
2022/12/19 05:43:33;;;;;;;0.52;0.38;;;;;;;10.91;100.00;99982.94;5026948;28;20020;-56
2022/12/19 05:45:59;;;;;;;2.00;0.10;;;;;;;10.91;100.00;99974.97;5024325;28;20043;-53
2022/12/19 05:48:24;;;;;;;0.40;0.20;;;;;;;10.96;100.00;99990.28;5030652;28;20043;-56
2022/12/19 05:50:49;;;;;;;3.35;0.10;;;;;;;10.97;100.00;99976.81;5024263;28;20525;-54
2022/12/19 05:53:16;;;;;;;0.55;0.30;;;;;;;10.97;100.00;99982.13;5030888;28;20398;-55
2022/12/19 05:55:41;;;;;;;2.70;0.65;;;;;;;10.91;100.00;99969.66;5027124;28;20033;-56
2022/12/19 05:58:06;;;;;;;0.85;0.00;;;;;;;10.91;100.00;99969.66;5021676;28;20029;-58
2022/12/19 06:00:32;;;;;;;0.52;0.20;;;;;;;10.93;100.00;99972.13;5028068;28;20033;-56
2022/12/19 06:02:57;;;;;;;1.13;0.00;;;;;;;10.94;100.00;99971.09;5028879;28;20055;-57
2022/12/19 06:05:22;;;;;;;2.75;0.20;;;;;;;10.98;100.00;99969.69;5026231;28;20475;-53
2022/12/19 06:07:48;;;;;;;0.52;0.00;;;;;;;11.01;100.00;99966.59;5026171;28;20030;-55
2022/12/19 06:10:13;;;;;;;2.40;0.57;;;;;;;11.01;100.00;99964.75;5026952;28;20033;-57
2022/12/19 06:12:38;;;;;;;0.10;0.00;;;;;;;10.98;100.00;99962.53;5019949;28;20026;-58
2022/12/19 06:15:04;;;;;;;1.90;0.08;;;;;;;11.03;100.00;99973.34;5015583;28;20032;-58
2022/12/19 06:17:30;;;;;;;0.52;0.00;;;;;;;10.97;100.00;99974.16;5040836;28;20426;-54
2022/12/19 06:19:55;;;;;;;0.75;0.20;;;;;;;10.97;100.00;99960.91;5032062;28;20026;-54
2022/12/19 06:22:20;;;;;;;2.53;0.10;;;;;;;10.98;100.00;99970.47;5030758;28;20049;-56
2022/12/19 06:24:46;;;;;;;1.75;0.00;;;;;;;10.96;100.00;99961.91;5029303;28;20053;-56
2022/12/19 06:27:11;;;;;;;2.47;0.22;;;;;;;11.00;100.00;99965.78;5030537;28;20053;-59
2022/12/19 06:29:36;;;;;;;0.45;0.00;;;;;;;11.00;100.00;99949.88;5030526;28;20025;-58
2022/12/19 06:32:02;;;;;;;1.33;0.30;;;;;;;11.06;100.00;99961.50;5037032;28;20024;-59
2022/12/19 06:34:27;;;;;;;5.30;0.32;;;;;;;11.11;100.00;99959.84;5031808;28;20033;-53
2022/12/19 06:36:55;;;;;;;1.05;0.00;;;;;;;11.10;100.00;99949.44;5026119;28;20033;-57
2022/12/19 06:39:21;;;;;;;0.57;0.13;;;;;;;11.05;100.00;99955.38;5033251;28;20068;-57
2022/12/19 06:44:30;;;;;;;0.10;0.10;;;;;;;11.14;100.00;99940.03;5027406;28;20088;-61
2022/12/19 06:46:56;;;;;;;2.22;0.20;;;;;;;11.16;100.00;99942.50;5028432;28;20055;-60
2022/12/19 06:49:21;;;;;;;2.35;0.77;;;;;;;11.13;100.00;99954.34;5029302;28;20033;-60
2022/12/19 06:51:46;;;;;;;2.67;0.25;;;;;;;11.12;100.00;99953.50;5025624;28;20032;-57
2022/12/19 06:54:12;;;;;;;4.55;0.38;;;;;;;11.14;100.00;99959.44;5022992;28;20087;-58
2022/12/19 06:56:40;;;;;;;3.92;0.95;;;;;;;11.16;100.00;99953.94;5026320;28;20029;-58
2022/12/19 06:59:06;;;;;;;4.47;1.50;;;;;;;11.20;100.00;99973.69;5027611;28;20044;-52
2022/12/19 07:01:31;;;;;;;2.38;0.20;;;;;;;11.20;100.00;99970.22;5025598;28;20029;-53
2022/12/19 07:03:57;;;;;;;1.25;0.90;;;;;;;11.22;100.00;99966.34;5018241;28;20040;-57
2022/12/19 07:06:23;;;;;;;2.30;1.73;;;;;;;11.27;100.00;99966.53;5024448;28;20033;-57
2022/12/19 07:08:48;;;;;;;1.20;0.20;;;;;;;11.29;100.00;99979.63;5025538;28;20038;-57
2022/12/19 07:11:13;;;;;;;0.50;0.22;;;;;;;11.27;100.00;99976.34;5029808;28;20045;-56
2022/12/19 07:13:39;;;;;;;6.90;0.95;;;;;;;11.29;100.00;99979.63;5026191;28;20030;-57
2022/12/19 07:16:05;;;;;;;3.78;0.50;;;;;;;11.31;100.00;99977.56;5029988;28;20038;-54
2022/12/19 07:18:34;;;;;;;1.20;0.10;;;;;;;11.30;100.00;99963.47;5022198;28;20029;-57
2022/12/19 07:21:00;;;;;;;0.90;0.20;;;;;;;11.24;100.00;99988.19;5019362;28;20025;-55
2022/12/19 07:23:27;;;;;;;0.98;0.60;;;;;;;11.25;100.00;99989.81;5025472;28;20053;-53
2022/12/19 07:25:53;;;;;;;1.40;1.30;;;;;;;11.28;100.00;99986.78;5023543;28;20113;-55
2022/12/19 07:28:18;;;;;;;4.10;1.48;;;;;;;11.28;100.00;99993.88;5022477;28;20116;-54
2022/12/19 07:30:44;;;;;;;1.30;0.55;;;;;;;11.29;100.00;99976.97;5018273;28;20033;-56
2022/12/19 07:33:09;;;;;;;0.85;0.40;;;;;;;11.24;100.00;99996.16;5019191;28;20394;-57
2022/12/19 07:35:34;;;;;;;0.95;0.00;;;;;;;11.24;100.00;99966.97;5016425;28;20037;-52
2022/12/19 07:38:02;;;;;;;0.45;0.00;;;;;;;11.25;100.00;99986.34;5015107;28;20100;-50
2022/12/19 07:40:30;;;;;;;1.60;0.20;;;;;;;11.27;100.00;99992.28;5021783;28;20061;-52
2022/12/19 07:43:04;;;;;;;2.63;0.10;;;;;;;11.24;100.00;99992.69;5024057;28;20049;-55
2022/12/19 07:45:30;;;;;;;0.13;0.13;;;;;;;11.24;100.00;99995.34;5019881;28;20117;-56
2022/12/19 07:47:59;;;;;;;2.70;0.00;;;;;;;11.28;100.00;100000.03;5021486;28;20133;-55
2022/12/19 07:50:25;;;;;;;5.35;0.35;;;;;;;11.25;100.00;99991.66;5020519;28;20517;-56
2022/12/19 07:52:50;;;;;;;0.25;0.08;;;;;;;11.29;100.00;99999.00;5020926;28;20497;-54
2022/12/19 07:55:16;;;;;;;2.83;0.35;;;;;;;11.27;100.00;100003.69;5021510;28;20088;-58
2022/12/19 07:57:41;;;;;;;0.25;0.22;;;;;;;11.27;100.00;99995.75;5024153;28;20141;-58
2022/12/19 08:00:07;;;;;;;0.35;0.10;;;;;;;11.28;100.00;99989.44;5024201;28;20030;-55
2022/12/19 08:02:32;;;;;;;6.97;0.95;;;;;;;11.31;100.00;100020.03;5021329;28;20025;-57
2022/12/19 08:05:01;;;;;;;3.20;0.40;;;;;;;11.34;100.00;100001.03;5023127;28;20040;-58
2022/12/19 08:07:26;;;;;;;0.73;0.10;;;;;;;11.30;100.00;100026.34;5018728;28;20044;-56
2022/12/19 08:09:52;;;;;;;0.90;0.20;;;;;;;11.24;100.00;99993.50;5024735;28;20017;-58
2022/12/19 08:12:17;;;;;;;2.28;0.17;;;;;;;11.23;100.00;99996.34;5022001;28;20034;-58
2022/12/19 08:14:43;;;;;;;2.40;0.63;;;;;;;11.22;100.00;100000.84;5020837;28;20034;-53
2022/12/19 08:17:08;;;;;;;1.38;0.70;;;;;;;11.23;100.00;100001.66;5024764;28;20037;-55
2022/12/19 08:19:34;;;;;;;6.70;3.00;;;;;;;11.23;100.00;100010.47;5017911;28;20121;-59
2022/12/19 08:21:59;;;;;;;7.22;3.05;;;;;;;11.29;100.00;100011.47;5020434;28;20034;-58
2022/12/19 08:24:24;;;;;;;11.63;4.60;;;;;;;11.28;100.00;100013.31;5017945;28;20030;-57
2022/12/19 08:26:50;;;;;;;10.45;4.43;;;;;;;11.30;100.00;100011.25;5026816;28;20086;-57
2022/12/19 08:29:15;;;;;;;1.75;1.02;;;;;;;11.33;100.00;100017.97;5019919;28;20028;-55
2022/12/19 08:31:41;;;;;;;1.50;0.00;;;;;;;11.32;100.00;100026.97;5029161;28;20124;-59
2022/12/19 08:34:06;;;;;;;1.33;0.30;;;;;;;11.36;100.00;100020.25;5027186;28;20104;-58
2022/12/19 08:36:31;;;;;;;2.63;0.93;;;;;;;11.38;100.00;100010.22;5010788;28;20033;-53
2022/12/19 08:38:57;;;;;;;1.67;0.43;;;;;;;11.40;100.00;100028.59;5025602;28;20048;-56
2022/12/19 08:41:22;;;;;;;2.00;0.35;;;;;;;11.45;100.00;100029.59;5025156;28;20044;-53
2022/12/19 08:43:50;;;;;;;5.05;0.73;;;;;;;11.43;100.00;100028.97;5030654;28;20077;-57
2022/12/19 08:46:17;;;;;;;2.50;0.38;;;;;;;11.39;100.00;100005.75;5032426;28;20052;-58
2022/12/19 08:48:43;;;;;;;2.42;0.38;;;;;;;11.36;100.00;100017.59;5028156;28;20132;-55
2022/12/19 08:51:11;;;;;;;2.17;0.32;;;;;;;11.38;100.00;100004.91;5020774;28;20105;-57
2022/12/19 08:53:38;;;;;;;10.05;0.95;;;;;;;11.37;100.00;100013.09;5030921;28;20369;-59
2022/12/19 08:56:12;;;;;;;3.65;0.85;;;;;;;11.35;100.00;100008.78;5025855;28;20033;-57
2022/12/19 08:58:37;;;;;;;3.35;0.38;;;;;;;11.34;100.00;100009.81;5024326;28;20091;-59
2022/12/19 09:01:09;;;;;;;8.25;2.03;;;;;;;11.38;100.00;100004.91;5027302;28;20021;-62
2022/12/19 09:03:34;;;;;;;5.47;0.35;;;;;;;11.36;100.00;100006.97;5020568;28;20037;-58
2022/12/19 09:06:02;;;;;;;3.63;1.52;;;;;;;11.37;100.00;100003.28;5025572;28;20113;-60
2022/12/19 09:08:28;;;;;;;3.08;0.30;;;;;;;11.35;100.00;100010.63;5028558;28;20026;-60
2022/12/19 09:10:58;;;;;;;8.43;2.75;;;;;;;11.38;100.00;100012.84;5027777;28;20040;-56
2022/12/19 09:13:25;;;;;;;6.05;2.42;;;;;;;11.33;100.00;100017.97;5025434;28;20026;-58
2022/12/19 09:15:58;;;;;;;1.50;0.70;;;;;;;11.39;100.00;100017.16;5033658;28;20026;-57
2022/12/19 09:18:23;;;;;;;8.05;1.30;;;;;;;11.39;100.00;100001.25;5025029;28;20456;-60
2022/12/19 09:20:52;;;;;;;2.45;0.88;;;;;;;11.39;100.00;99993.28;5026000;28;20120;-57
2022/12/19 09:23:18;;;;;;;4.97;0.35;;;;;;;11.38;100.00;99983.66;5029898;28;20030;-56
2022/12/19 09:25:43;;;;;;;8.65;2.00;;;;;;;11.38;100.00;99996.13;5019431;28;20088;-61
2022/12/19 09:28:09;;;;;;;3.30;0.63;;;;;;;11.37;100.00;99987.34;5026196;28;20103;-60
2022/12/19 09:30:34;;;;;;;3.50;1.48;;;;;;;11.39;100.00;99993.28;5023629;28;20026;-53
2022/12/19 09:32:59;;;;;;;2.50;0.80;;;;;;;11.33;100.00;99992.28;5020999;28;20033;-56
2022/12/19 09:35:24;;;;;;;6.72;0.22;;;;;;;11.31;100.00;99996.16;5022661;28;20030;-53
2022/12/19 09:37:50;;;;;;;3.72;0.93;;;;;;;11.34;100.00;100004.50;5025178;28;20064;-60
2022/12/19 09:40:16;;;;;;;5.32;1.80;;;;;;;11.32;100.00;100001.25;5028628;28;20498;-59
2022/12/19 09:42:57;;;;;;;8.20;1.50;;;;;;;11.37;100.00;100013.09;5030879;28;20325;-59
2022/12/19 09:45:33;;;;;;;1.83;0.20;;;;;;;11.39;100.00;100011.84;5021800;28;20029;-59
2022/12/19 09:48:01;;;;;;;2.42;0.85;;;;;;;11.36;100.00;100006.97;5019381;28;20128;-57
2022/12/19 09:50:41;;;;;;;2.90;0.85;;;;;;;11.34;100.00;100016.97;5025870;28;20044;-57
2022/12/19 09:53:16;;;;;;;2.30;0.20;;;;;;;11.38;100.00;100023.47;5019789;28;20529;-60
2022/12/19 09:55:43;;;;;;;1.55;0.22;;;;;;;11.29;100.00;100014.13;5027042;28;20060;-58
2022/12/19 09:58:30;;;;;;;1.75;0.10;;;;;;;11.25;100.00;100011.03;5025807;28;20030;-60
2022/12/19 10:00:57;;;;;;;1.73;0.25;;;;;;;11.25;100.00;100020.84;5019619;28;20132;-60
2022/12/19 10:03:42;;;;;;;4.78;0.57;;;;;;;11.29;100.00;100030.03;5025566;28;20025;-58
2022/12/19 10:06:21;;;;;;;2.22;0.00;;;;;;;11.30;100.00;100040.44;5024606;28;20036;-58
2022/12/19 10:08:47;;;;;;;3.45;0.82;;;;;;;11.31;100.00;100034.13;5016876;28;20053;-61
2022/12/19 10:11:15;;;;;;;2.45;0.40;;;;;;;11.33;100.00;100048.00;5020037;28;20030;-58
2022/12/19 10:14:09;;;;;;;0.32;0.00;;;;;;;11.33;100.00;100039.22;5020583;28;20048;-60
2022/12/19 10:17:11;;;;;;;0.77;0.45;;;;;;;11.38;100.00;100036.75;5024804;28;20562;-56
2022/12/19 10:19:55;;;;;;;0.47;0.00;;;;;;;11.37;100.00;100023.69;5019339;28;20033;-60
2022/12/19 10:22:39;;;;;;;3.42;0.30;;;;;;;11.38;100.00;100033.28;5015027;28;20034;-60
2022/12/19 10:25:20;;;;;;;5.90;1.08;;;;;;;11.38;100.00;100036.75;5021323;28;20115;-61
2022/12/19 10:27:51;;;;;;;1.27;0.30;;;;;;;11.40;100.00;100031.25;5025132;28;20517;-60
2022/12/19 10:30:19;;;;;;;1.50;0.00;;;;;;;11.36;100.00;100030.84;5020865;28;20423;-59
2022/12/19 10:33:04;;;;;;;2.67;0.20;;;;;;;11.38;100.00;100044.72;5022001;28;20402;-58
2022/12/19 10:35:39;;;;;;;5.55;0.30;;;;;;;11.35;100.00;100030.00;5022193;28;20045;-61
2022/12/19 10:38:10;;;;;;;2.33;0.10;;;;;;;11.34;100.00;100035.56;5024602;28;20026;-58
2022/12/19 10:41:28;;;;;;;0.32;0.15;;;;;;;11.37;100.00;100021.03;5021922;28;20028;-58
2022/12/19 10:44:08;;;;;;;4.18;0.13;;;;;;;11.34;100.00;100024.94;5012749;28;20128;-60
2022/12/19 10:46:40;;;;;;;1.85;0.60;;;;;;;11.37;100.00;100029.00;5016133;28;20430;-59
2022/12/19 10:49:12;;;;;;;2.88;1.27;;;;;;;11.36;100.00;100028.19;5025720;28;20042;-58
2022/12/19 10:51:37;;;;;;;0.50;0.20;;;;;;;11.32;100.00;100042.91;5018113;28;20041;-54
2022/12/19 10:54:02;;;;;;;0.68;0.10;;;;;;;11.28;100.00;100029.22;5019510;28;20636;-55
2022/12/19 10:56:30;;;;;;;0.50;0.05;;;;;;;11.30;100.00;100029.81;5020846;28;20029;-58
2022/12/19 10:58:57;;;;;;;1.35;0.00;;;;;;;11.28;100.00;100029.22;5015639;28;20030;-54
2022/12/19 11:01:27;;;;;;;2.58;1.27;;;;;;;11.28;100.00;100015.97;5020417;28;20033;-58
2022/12/19 11:04:10;;;;;;;1.55;0.20;;;;;;;11.31;100.00;100009.44;5022469;28;20049;-53
2022/12/19 11:06:44;;;;;;;0.35;0.00;;;;;;;11.30;100.00;100018.41;5016027;28;20033;-55
2022/12/19 11:09:28;;;;;;;1.90;0.57;;;;;;;11.25;100.00;100004.94;5024758;28;20526;-60
2022/12/19 11:12:05;;;;;;;7.13;1.98;;;;;;;11.29;100.00;100011.47;5019974;28;20039;-57
2022/12/19 11:14:31;;;;;;;3.05;1.67;;;;;;;11.23;100.00;100001.66;5022241;28;20068;-57
2022/12/19 11:16:57;;;;;;;7.30;1.60;;;;;;;11.21;100.00;100001.88;5025311;28;20049;-57
2022/12/19 11:19:37;;;;;;;1.80;1.00;;;;;;;11.19;100.00;99990.66;5023601;28;20025;-56
2022/12/19 11:22:15;;;;;;;2.42;0.63;;;;;;;11.16;100.00;99985.78;5018943;28;20092;-54
2022/12/19 11:24:45;;;;;;;3.10;0.40;;;;;;;11.16;100.00;99990.25;5021970;28;20108;-58
2022/12/19 11:27:49;;;;;;;4.80;2.88;;;;;;;11.21;100.00;99998.41;5017485;28;20044;-60
2022/12/19 11:30:14;;;;;;;3.08;1.65;;;;;;;11.13;100.00;99989.66;5020668;28;20041;-55
2022/12/19 11:32:43;;;;;;;2.40;0.30;;;;;;;11.22;100.00;99984.13;5020766;28;20103;-55
2022/12/19 11:35:19;;;;;;;0.52;0.40;;;;;;;11.21;100.00;99993.13;5017867;28;20033;-53
2022/12/19 11:37:59;;;;;;;0.50;0.22;;;;;;;11.25;100.00;99984.50;5020537;28;20045;-57
2022/12/19 11:40:48;;;;;;;6.65;1.95;;;;;;;11.26;100.00;99980.84;5024059;28;20452;-52